createdAt,value
2023-02-01T00:00:57.816Z,97590.03
2023-02-01T00:03:25.997Z,97602.75
2023-02-01T00:05:58.834Z,97596.25
2023-02-01T00:08:26.888Z,97604.69
2023-02-01T00:11:02.340Z,97595.56
2023-02-01T00:13:32.128Z,97606.25
2023-02-01T00:16:08.151Z,97600.59
2023-02-01T00:18:37.092Z,97607.72
2023-02-01T00:21:05.874Z,97613.53
2023-02-01T00:23:35.290Z,97597.88
2023-02-01T00:26:06.020Z,97610.25
2023-02-01T00:28:34.622Z,97586.22
2023-02-01T00:31:05.407Z,97579.47
2023-02-01T00:33:34.417Z,97577.19
2023-02-01T00:36:03.855Z,97575.69
2023-02-01T00:38:32.729Z,97630.66
2023-02-01T00:41:07.503Z,97562.63
2023-02-01T00:43:36.559Z,97559.22
2023-02-01T00:46:05.270Z,97558.91
2023-02-01T00:48:33.953Z,97564.69
2023-02-01T00:51:02.875Z,97572.41
2023-02-01T00:53:32.020Z,97560.31
2023-02-01T00:56:00.922Z,97582.19
2023-02-01T00:58:30.609Z,97581.53
2023-02-01T01:01:07.295Z,97559.25
2023-02-01T01:03:38.216Z,97595.47
2023-02-01T01:06:09.019Z,97566.75
2023-02-01T01:08:37.940Z,97579.16
2023-02-01T01:11:10.040Z,97556.47
2023-02-01T01:13:39.835Z,97575.75
2023-02-01T01:16:10.839Z,97575.34
2023-02-01T01:18:39.856Z,97571.25
2023-02-01T01:21:09.641Z,97583.19
2023-02-01T01:23:38.068Z,97601.19
2023-02-01T01:26:10.317Z,97585.56
2023-02-01T01:28:39.910Z,97578.72
2023-02-01T01:31:10.794Z,97581.91
2023-02-01T01:33:39.409Z,97581.59
2023-02-01T01:36:08.708Z,97592.13
2023-02-01T01:38:37.664Z,97584.16
2023-02-01T01:41:06.311Z,97575.66
2023-02-01T01:43:52.236Z,97598.06
2023-02-01T01:46:23.167Z,97582.63
2023-02-01T01:48:55.200Z,97589.81
2023-02-01T01:51:26.774Z,97616.41
2023-02-01T01:54:04.551Z,97565.00
2023-02-01T01:56:34.808Z,97591.06
2023-02-01T01:59:06.578Z,97596.16
2023-02-01T02:01:34.909Z,97615.41
2023-02-01T02:04:03.681Z,97582.03
2023-02-01T02:06:46.468Z,97570.97
2023-02-01T02:09:14.936Z,97588.13
2023-02-01T02:11:43.171Z,97585.22
2023-02-01T02:14:18.910Z,97590.00
2023-02-01T02:17:17.865Z,97589.69
2023-02-01T02:20:11.559Z,97626.63
2023-02-01T02:23:04.604Z,97613.97
2023-02-01T02:26:02.201Z,97611.09
2023-02-01T02:28:59.336Z,97672.25
2023-02-01T02:31:49.136Z,97618.31
2023-02-01T02:34:21.750Z,97651.97
2023-02-01T02:37:01.537Z,97644.06
2023-02-01T02:39:40.644Z,97646.41
2023-02-01T02:42:33.705Z,97602.53
2023-02-01T02:45:34.807Z,97614.41
2023-02-01T02:48:11.765Z,97636.75
2023-02-01T02:51:04.599Z,97638.31
2023-02-01T02:53:56.945Z,97613.09
2023-02-01T02:56:45.541Z,97660.84
2023-02-01T02:59:34.536Z,97670.28
2023-02-01T03:02:19.965Z,97621.47
2023-02-01T03:04:48.101Z,97657.00
2023-02-01T03:07:51.476Z,97637.22
2023-02-01T03:10:26.543Z,97667.56
2023-02-01T03:12:58.631Z,97658.13
2023-02-01T03:15:33.885Z,97650.41
2023-02-01T03:18:05.452Z,97654.75
2023-02-01T03:20:34.503Z,97667.50
2023-02-01T03:23:07.653Z,97657.56
2023-02-01T03:25:37.739Z,97676.16
2023-02-01T03:28:09.874Z,97660.75
2023-02-01T03:30:41.429Z,97687.41
2023-02-01T03:33:15.011Z,97691.22
2023-02-01T03:35:51.246Z,97658.78
2023-02-01T03:38:25.614Z,97672.97
2023-02-01T03:41:02.217Z,97693.19
2023-02-01T03:43:36.057Z,97685.72
2023-02-01T03:46:12.060Z,97690.72
2023-02-01T03:48:42.676Z,97683.00
2023-02-01T03:51:12.883Z,97690.53
2023-02-01T03:53:44.019Z,97710.94
2023-02-01T03:56:12.829Z,97712.94
2023-02-01T03:58:41.263Z,97688.81
2023-02-01T04:01:09.517Z,97705.75
2023-02-01T04:03:40.126Z,97687.28
2023-02-01T04:06:08.452Z,97681.72
2023-02-01T04:08:37.788Z,97691.00
2023-02-01T04:11:07.334Z,97674.69
2023-02-01T04:13:35.437Z,97675.09
2023-02-01T04:16:03.595Z,97680.00
2023-02-01T04:18:31.690Z,97670.97
2023-02-01T04:20:59.732Z,97671.81
2023-02-01T04:23:27.818Z,97698.19
2023-02-01T04:25:56.955Z,97694.38
2023-02-01T04:28:26.414Z,97693.34
2023-02-01T04:30:54.650Z,97679.53
2023-02-01T04:33:22.776Z,97701.97
2023-02-01T04:35:50.894Z,97681.19
2023-02-01T04:38:19.011Z,97709.16
2023-02-01T04:40:50.166Z,97688.69
2023-02-01T04:43:18.816Z,97694.81
2023-02-01T04:45:52.059Z,97698.91
2023-02-01T04:48:23.325Z,97700.25
2023-02-01T04:50:52.832Z,97720.38
2023-02-01T04:53:21.087Z,97703.19
2023-02-01T04:55:50.703Z,97701.09
2023-02-01T04:58:18.894Z,97709.47
2023-02-01T05:00:46.887Z,97712.31
2023-02-01T05:03:16.474Z,97711.66
2023-02-01T05:05:44.527Z,97706.44
2023-02-01T05:08:12.564Z,97710.38
2023-02-01T05:10:40.595Z,97717.41
2023-02-01T05:13:27.167Z,97711.50
2023-02-01T05:15:55.270Z,97726.31
2023-02-01T05:18:24.731Z,97706.38
2023-02-01T05:20:52.821Z,97699.59
2023-02-01T05:23:20.899Z,97707.16
2023-02-01T05:25:48.939Z,97692.41
2023-02-01T05:28:17.171Z,97728.72
2023-02-01T05:30:45.415Z,97709.69
2023-02-01T05:33:13.703Z,97701.09
2023-02-01T05:35:43.376Z,97702.75
2023-02-01T05:38:11.474Z,97701.84
2023-02-01T05:40:39.529Z,97700.13
2023-02-01T05:43:07.616Z,97700.44
2023-02-01T05:45:35.655Z,97701.34
2023-02-01T05:48:03.711Z,97704.59
2023-02-01T05:50:31.762Z,97697.94
2023-02-01T05:53:01.215Z,97703.50
2023-02-01T05:55:29.341Z,97710.69
2023-02-01T05:57:57.386Z,97707.28
2023-02-01T06:00:26.179Z,97683.69
2023-02-01T06:02:54.660Z,97692.72
2023-02-01T06:05:23.189Z,97694.00
2023-02-01T06:07:51.838Z,97717.66
2023-02-01T06:10:22.194Z,97700.50
2023-02-01T06:12:50.587Z,97697.00
2023-02-01T06:15:19.252Z,97713.97
2023-02-01T06:17:48.249Z,97685.19
2023-02-01T06:20:17.372Z,97692.09
2023-02-01T06:22:45.492Z,97712.66
2023-02-01T06:25:13.573Z,97687.16
2023-02-01T06:27:43.012Z,97690.28
2023-02-01T06:30:14.610Z,97690.28
2023-02-01T06:32:43.008Z,97690.09
2023-02-01T06:35:16.996Z,97699.31
2023-02-01T06:37:45.810Z,97706.22
2023-02-01T06:40:14.692Z,97688.59
2023-02-01T06:42:44.095Z,97687.41
2023-02-01T06:45:12.752Z,97699.47
2023-02-01T06:47:40.781Z,97693.06
2023-02-01T06:50:10.387Z,97685.31
2023-02-01T06:52:38.541Z,97693.81
2023-02-01T06:55:07.569Z,97690.03
2023-02-01T06:57:36.785Z,97685.44
2023-02-01T07:00:07.601Z,97688.81
2023-02-01T07:02:35.725Z,97688.59
2023-02-01T07:05:03.758Z,97685.13
2023-02-01T07:07:31.776Z,97690.88
2023-02-01T07:09:59.859Z,97675.88
2023-02-01T07:12:27.876Z,97693.50
2023-02-01T07:14:56.025Z,97691.63
2023-02-01T07:17:25.752Z,97685.47
2023-02-01T07:19:53.856Z,97691.63
2023-02-01T07:22:21.899Z,97686.78
2023-02-01T07:24:50.026Z,97685.50
2023-02-01T07:27:18.073Z,97685.72
2023-02-01T07:29:46.077Z,97680.28
2023-02-01T07:32:14.163Z,97678.72
2023-02-01T07:34:43.752Z,97685.59
2023-02-01T07:37:11.815Z,97668.38
2023-02-01T07:39:39.891Z,97677.53
2023-02-01T07:42:08.311Z,97675.16
2023-02-01T07:44:36.427Z,97675.19
2023-02-01T07:47:04.862Z,97663.00
2023-02-01T07:49:33.070Z,97663.38
2023-02-01T07:52:02.564Z,97658.56
2023-02-01T07:54:30.635Z,97669.84
2023-02-01T07:56:58.688Z,97667.25
2023-02-01T07:59:26.782Z,97674.69
2023-02-01T08:01:53.873Z,97688.28
2023-02-01T08:04:22.164Z,97676.03
2023-02-01T08:06:50.174Z,97672.31
2023-02-01T08:09:19.641Z,97668.44
2023-02-01T08:11:47.689Z,97664.84
2023-02-01T08:14:16.043Z,97667.31
2023-02-01T08:16:44.265Z,97656.56
2023-02-01T08:19:12.383Z,97662.34
2023-02-01T08:21:40.461Z,97673.94
2023-02-01T08:24:11.324Z,97692.03
2023-02-01T08:26:40.858Z,97659.31
2023-02-01T08:29:11.531Z,97674.06
2023-02-01T08:31:41.719Z,97655.75
2023-02-01T08:34:10.853Z,97659.59
2023-02-01T08:36:39.316Z,97665.13
2023-02-01T08:39:10.080Z,97664.22
2023-02-01T08:41:38.381Z,97660.63
2023-02-01T08:44:07.981Z,97666.34
2023-02-01T08:46:36.095Z,97674.44
2023-02-01T08:49:04.174Z,97683.63
2023-02-01T08:51:32.309Z,97685.13
2023-02-01T08:54:00.371Z,97675.41
2023-02-01T08:56:28.480Z,97677.72
2023-02-01T08:58:56.572Z,97672.19
2023-02-01T09:01:26.277Z,97692.91
2023-02-01T09:03:54.317Z,97682.94
2023-02-01T09:06:22.454Z,97676.63
2023-02-01T09:08:50.520Z,97665.91
2023-02-01T09:11:20.401Z,97672.69
2023-02-01T09:13:49.971Z,97658.69
2023-02-01T09:16:18.078Z,97651.47
2023-02-01T09:18:55.966Z,97650.72
2023-02-01T09:21:24.709Z,97648.84
2023-02-01T09:23:53.147Z,97639.59
2023-02-01T09:26:26.580Z,97674.84
2023-02-01T09:28:59.475Z,97649.84
2023-02-01T09:31:27.829Z,97643.41
2023-02-01T09:33:57.405Z,97645.06
2023-02-01T09:36:25.630Z,97630.63
2023-02-01T09:38:54.833Z,97652.13
2023-02-01T09:41:34.393Z,97650.59
2023-02-01T09:44:10.476Z,97635.00
2023-02-01T09:46:38.749Z,97626.91
2023-02-01T09:49:15.784Z,97632.66
2023-02-01T09:51:47.658Z,97631.91
2023-02-01T09:54:19.318Z,97638.50
2023-02-01T09:56:52.004Z,97619.97
2023-02-01T09:59:33.086Z,97622.53
2023-02-01T10:02:03.038Z,97622.47
2023-02-01T10:04:34.482Z,97656.53
2023-02-01T10:07:12.554Z,97624.25
2023-02-01T10:09:52.081Z,97625.63
2023-02-01T10:13:04.723Z,97616.03
2023-02-01T10:15:49.900Z,97613.06
2023-02-01T10:18:33.072Z,97630.22
2023-02-01T10:21:12.094Z,97639.03
2023-02-01T10:24:16.868Z,97634.69
2023-02-01T10:26:49.976Z,97656.28
2023-02-01T10:29:21.556Z,97623.56
2023-02-01T10:31:49.926Z,97617.91
2023-02-01T10:34:23.117Z,97617.72
2023-02-01T10:37:02.780Z,97636.44
2023-02-01T10:39:30.929Z,97628.00
2023-02-01T10:41:59.182Z,97605.09
2023-02-01T10:44:30.430Z,97615.19
2023-02-01T10:46:58.558Z,97625.63
2023-02-01T10:49:31.672Z,97638.59
2023-02-01T10:52:09.108Z,97618.56
2023-02-01T10:54:40.136Z,97611.66
2023-02-01T10:57:10.987Z,97606.84
2023-02-01T10:59:39.578Z,97628.31
2023-02-01T11:02:21.387Z,97613.09
2023-02-01T11:04:49.632Z,97600.38
2023-02-01T11:07:25.526Z,97598.97
2023-02-01T11:09:57.460Z,97589.78
2023-02-01T11:12:32.300Z,97608.13
2023-02-01T11:15:04.197Z,97612.59
2023-02-01T11:17:39.330Z,97600.69
2023-02-01T11:20:16.567Z,97595.09
2023-02-01T11:22:50.944Z,97611.91
2023-02-01T11:25:20.474Z,97605.22
2023-02-01T11:27:54.856Z,97598.91
2023-02-01T11:30:33.947Z,97591.84
2023-02-01T11:33:05.411Z,97602.81
2023-02-01T11:35:39.298Z,97583.81
2023-02-01T11:38:18.263Z,97581.50
2023-02-01T11:40:46.339Z,97566.50
2023-02-01T11:43:19.942Z,97574.03
2023-02-01T11:45:57.630Z,97550.06
2023-02-01T11:48:27.578Z,97576.06
2023-02-01T11:51:18.878Z,97568.88
2023-02-01T11:54:04.922Z,97587.97
2023-02-01T11:56:38.062Z,97571.81
2023-02-01T11:59:27.760Z,97570.56
2023-02-01T12:02:14.810Z,97561.22
2023-02-01T12:05:08.027Z,97561.25
2023-02-01T12:07:54.152Z,97553.16
2023-02-01T12:10:33.226Z,97541.94
2023-02-01T12:13:12.837Z,97557.28
2023-02-01T12:15:51.173Z,97555.44
2023-02-01T12:18:54.089Z,97527.59
2023-02-01T12:21:44.386Z,97559.25
2023-02-01T12:24:39.675Z,97550.19
2023-02-01T12:27:29.858Z,97541.53
2023-02-01T12:30:12.759Z,97522.72
2023-02-01T12:33:03.287Z,97530.19
2023-02-01T12:35:49.765Z,97529.22
2023-02-01T12:38:38.728Z,97530.41
2023-02-01T12:41:26.010Z,97539.03
2023-02-01T12:43:58.732Z,97521.25
2023-02-01T12:46:33.726Z,97509.59
2023-02-01T12:49:06.281Z,97506.66
2023-02-01T12:51:38.222Z,97493.75
2023-02-01T12:54:15.096Z,97511.81
2023-02-01T12:56:47.097Z,97507.97
2023-02-01T12:59:22.724Z,97527.63
2023-02-01T13:01:57.719Z,97513.06
2023-02-01T13:04:31.479Z,97510.22
2023-02-01T13:07:08.422Z,97511.59
2023-02-01T13:09:45.053Z,97485.41
2023-02-01T13:12:17.765Z,97502.53
2023-02-01T13:14:52.988Z,97503.88
2023-02-01T13:17:25.777Z,97513.97
2023-02-01T13:19:58.183Z,97511.28
2023-02-01T13:22:31.092Z,97517.25
2023-02-01T13:25:01.873Z,97502.47
2023-02-01T13:27:31.473Z,97491.50
2023-02-01T13:30:02.886Z,97489.06
2023-02-01T13:33:50.264Z,97496.53
2023-02-01T13:35:53.746Z,97484.88
2023-02-01T13:38:48.165Z,97482.69
2023-02-01T13:41:29.725Z,97492.28
2023-02-01T13:44:01.948Z,97483.78
2023-02-01T13:46:32.628Z,97481.84
2023-02-01T13:49:04.111Z,97487.84
2023-02-01T13:51:39.234Z,97489.72
2023-02-01T13:54:08.113Z,97491.50
2023-02-01T13:56:44.256Z,97481.56
2023-02-01T14:00:01.180Z,97485.09
2023-02-01T14:02:52.141Z,97484.50
2023-02-01T14:05:56.049Z,97491.03
2023-02-01T14:08:37.664Z,97481.09
2023-02-01T14:11:06.448Z,97469.75
2023-02-01T14:13:36.701Z,97494.84
2023-02-01T14:16:17.153Z,97468.38
2023-02-01T14:19:02.062Z,97478.16
2023-02-01T14:21:33.110Z,97460.44
2023-02-01T14:24:03.885Z,97476.78
2023-02-01T14:26:46.432Z,97468.53
2023-02-01T14:29:33.863Z,97448.22
2023-02-01T14:32:07.111Z,97446.53
2023-02-01T14:34:52.260Z,97451.88
2023-02-01T14:37:29.582Z,97444.56
2023-02-01T14:40:02.118Z,97452.91
2023-02-01T14:42:35.625Z,97438.31
2023-02-01T14:45:46.049Z,97461.38
2023-02-01T14:48:46.128Z,97451.13
2023-02-01T14:51:18.594Z,97438.19
2023-02-01T14:53:47.935Z,97455.25
2023-02-01T14:56:21.464Z,97437.28
2023-02-01T14:58:57.550Z,97458.47
2023-02-01T15:01:30.462Z,97466.72
2023-02-01T15:04:05.642Z,97475.00
2023-02-01T15:06:40.265Z,97457.03
2023-02-01T15:09:13.481Z,97517.09
2023-02-01T15:12:21.436Z,97483.50
2023-02-01T15:15:05.254Z,97480.47
2023-02-01T15:17:35.269Z,97487.41
2023-02-01T15:20:13.807Z,97475.00
2023-02-01T15:22:44.362Z,97475.28
2023-02-01T15:25:22.169Z,97487.00
2023-02-01T15:27:50.681Z,97475.69
2023-02-01T15:30:20.916Z,97484.97
2023-02-01T15:32:50.449Z,97490.88
2023-02-01T15:35:44.297Z,97492.03
2023-02-01T15:38:36.262Z,97489.72
2023-02-01T15:41:16.467Z,97485.47
2023-02-01T15:43:49.717Z,97491.63
2023-02-01T15:46:32.287Z,97494.13
2023-02-01T15:49:00.604Z,97480.72
2023-02-01T15:51:31.700Z,97494.88
2023-02-01T15:54:03.696Z,97501.84
2023-02-01T15:56:37.149Z,97484.69
2023-02-01T15:59:08.293Z,97498.97
2023-02-01T16:01:42.251Z,97508.31
2023-02-01T16:04:19.099Z,97512.53
2023-02-01T16:06:50.169Z,97512.63
2023-02-01T16:09:21.785Z,97508.34
2023-02-01T16:11:55.302Z,97502.03
2023-02-01T16:14:24.044Z,97494.59
2023-02-01T16:16:52.771Z,97514.88
2023-02-01T16:19:22.140Z,97509.72
2023-02-01T16:21:50.199Z,97506.00
2023-02-01T16:24:19.703Z,97509.78
2023-02-01T16:26:47.777Z,97516.38
2023-02-01T16:29:17.303Z,97515.38
2023-02-01T16:31:45.828Z,97514.69
2023-02-01T16:34:19.089Z,97560.22
2023-02-01T16:36:52.808Z,97536.19
2023-02-01T16:39:22.935Z,97547.81
2023-02-01T16:41:51.489Z,97542.91
2023-02-01T16:44:19.617Z,97558.91
2023-02-01T16:46:49.792Z,97546.25
2023-02-01T16:49:21.955Z,97547.06
2023-02-01T16:51:53.839Z,97552.03
2023-02-01T16:54:24.110Z,97551.78
2023-02-01T16:56:52.381Z,97556.56
2023-02-01T16:59:20.455Z,97555.66
2023-02-01T17:01:48.563Z,97554.34
2023-02-01T17:04:17.601Z,97550.06
2023-02-01T17:06:48.312Z,97547.94
2023-02-01T17:09:16.742Z,97557.06
2023-02-01T17:11:46.160Z,97552.03
2023-02-01T17:14:18.166Z,97553.31
2023-02-01T17:16:48.989Z,97571.03
2023-02-01T17:19:20.415Z,97557.31
2023-02-01T17:21:52.574Z,97571.63
2023-02-01T17:24:25.910Z,97565.31
2023-02-01T17:26:57.039Z,97563.47
2023-02-01T17:29:25.941Z,97572.81
2023-02-01T17:31:56.410Z,97571.03
2023-02-01T17:34:24.678Z,97571.16
2023-02-01T17:36:52.824Z,97571.31
2023-02-01T17:39:38.275Z,97564.16
2023-02-01T17:42:12.134Z,97574.56
2023-02-01T17:44:40.404Z,97569.59
2023-02-01T17:47:08.445Z,97573.63
2023-02-01T17:49:38.891Z,97590.09
2023-02-01T17:52:08.101Z,97582.19
2023-02-01T17:54:37.579Z,97588.72
2023-02-01T17:57:13.503Z,97590.91
2023-02-01T17:59:41.822Z,97583.50
2023-02-01T18:02:20.251Z,97560.50
2023-02-01T18:04:49.368Z,97566.16
2023-02-01T18:07:17.735Z,97561.44
2023-02-01T18:09:45.892Z,97562.84
2023-02-01T18:12:19.918Z,97545.38
2023-02-01T18:14:48.067Z,97550.69
2023-02-01T18:17:16.172Z,97561.81
2023-02-01T18:19:44.369Z,97562.84
2023-02-01T18:22:17.855Z,97559.28
2023-02-01T18:24:46.137Z,97557.66
2023-02-01T18:27:14.205Z,97555.81
2023-02-01T18:29:43.630Z,97550.00
2023-02-01T18:32:12.192Z,97542.44
2023-02-01T18:34:41.082Z,97547.94
2023-02-01T18:37:09.266Z,97540.44
2023-02-01T18:39:37.581Z,97534.97
2023-02-01T18:42:05.811Z,97525.34
2023-02-01T18:44:33.884Z,97544.69
2023-02-01T18:47:03.459Z,97526.78
2023-02-01T18:49:31.519Z,97531.31
2023-02-01T18:52:00.261Z,97547.72
2023-02-01T18:54:28.377Z,97565.19
2023-02-01T18:56:56.561Z,97534.25
2023-02-01T18:59:24.668Z,97547.72
2023-02-01T19:01:52.958Z,97537.53
2023-02-01T19:04:25.690Z,97528.47
2023-02-01T19:06:55.181Z,97528.44
2023-02-01T19:09:23.400Z,97523.53
2023-02-01T19:11:51.517Z,97509.16
2023-02-01T19:14:19.551Z,97515.53
2023-02-01T19:16:47.715Z,97515.50
2023-02-01T19:19:15.837Z,97515.25
2023-02-01T19:21:45.215Z,97505.78
2023-02-01T19:24:13.332Z,97501.16
2023-02-01T19:26:42.466Z,97508.03
2023-02-01T19:29:10.675Z,97494.66
2023-02-01T19:31:38.721Z,97504.47
2023-02-01T19:34:06.922Z,97496.97
2023-02-01T19:36:41.548Z,97495.38
2023-02-01T19:39:12.104Z,97507.53
2023-02-01T19:41:40.246Z,97505.03
2023-02-01T19:44:08.554Z,97499.22
2023-02-01T19:46:36.824Z,97503.13
2023-02-01T19:49:04.897Z,97498.25
2023-02-01T19:51:32.968Z,97506.41
2023-02-01T19:54:01.228Z,97499.69
2023-02-01T19:56:30.683Z,97498.06
2023-02-01T19:58:58.867Z,97487.19
2023-02-01T20:01:26.544Z,97489.59
2023-02-01T20:03:56.191Z,97504.19
2023-02-01T20:06:24.328Z,97502.75
2023-02-01T20:08:52.373Z,97500.00
2023-02-01T20:11:20.508Z,97504.94
2023-02-01T20:13:49.951Z,97494.97
2023-02-01T20:16:18.162Z,97495.59
2023-02-01T20:18:46.371Z,97493.34
2023-02-01T20:21:15.116Z,97501.72
2023-02-01T20:23:46.426Z,97493.69
2023-02-01T20:26:16.552Z,97487.75
2023-02-01T20:28:44.837Z,97483.13
2023-02-01T20:31:15.540Z,97483.56
2023-02-01T20:33:43.743Z,97472.31
2023-02-01T20:36:11.802Z,97476.53
2023-02-01T20:38:39.932Z,97470.34
2023-02-01T20:41:09.839Z,97473.03
2023-02-01T20:43:38.028Z,97464.44
2023-02-01T20:46:06.513Z,97464.34
2023-02-01T20:48:36.102Z,97468.78
2023-02-01T20:51:05.081Z,97456.66
2023-02-01T20:53:34.115Z,97464.09
2023-02-01T20:56:02.131Z,97464.44
2023-02-01T20:58:31.531Z,97454.16
2023-02-01T21:00:59.680Z,97463.34
2023-02-01T21:03:28.140Z,97448.66
2023-02-01T21:05:59.097Z,97442.50
2023-02-01T21:08:29.083Z,97433.88
2023-02-01T21:10:58.555Z,97432.44
2023-02-01T21:13:27.373Z,97430.47
2023-02-01T21:15:55.465Z,97428.59
2023-02-01T21:18:24.321Z,97421.72
2023-02-01T21:20:52.731Z,97411.84
2023-02-01T21:23:22.685Z,97416.06
2023-02-01T21:25:50.937Z,97401.25
2023-02-01T21:28:18.976Z,97394.69
2023-02-01T21:30:47.276Z,97403.19
2023-02-01T21:33:15.332Z,97393.84
2023-02-01T21:35:43.492Z,97388.22
2023-02-01T21:38:11.618Z,97389.06
2023-02-01T21:40:41.170Z,97379.94
2023-02-01T21:43:09.257Z,97369.53
2023-02-01T21:45:39.809Z,97377.59
2023-02-01T21:48:11.595Z,97380.13
2023-02-01T21:50:39.787Z,97360.25
2023-02-01T21:53:08.034Z,97364.75
2023-02-01T21:55:36.143Z,97372.94
2023-02-01T21:58:12.603Z,97361.59
2023-02-01T22:00:45.719Z,97366.25
2023-02-01T22:03:14.541Z,97354.88
2023-02-01T22:05:43.362Z,97359.63
2023-02-01T22:08:11.611Z,97358.19
2023-02-01T22:10:42.091Z,97355.03
2023-02-01T22:13:11.542Z,97364.94
2023-02-01T22:15:39.591Z,97369.25
2023-02-01T22:18:08.517Z,97347.03
2023-02-01T22:20:36.770Z,97358.31
2023-02-01T22:23:04.986Z,97349.59
2023-02-01T22:25:35.278Z,97352.16
2023-02-01T22:28:32.226Z,97363.06
2023-02-01T22:30:52.899Z,97352.31
2023-02-01T22:33:21.560Z,97350.38
2023-02-01T22:35:50.382Z,97336.97
2023-02-01T22:38:18.763Z,97337.22
2023-02-01T22:40:46.983Z,97341.94
2023-02-01T22:43:14.991Z,97344.84
2023-02-01T22:45:43.204Z,97330.44
2023-02-01T22:48:12.684Z,97330.47
2023-02-01T22:50:40.809Z,97331.00
2023-02-01T22:53:08.826Z,97338.22
2023-02-01T22:55:38.005Z,97339.47
2023-02-01T22:58:08.300Z,97345.00
2023-02-01T23:00:36.637Z,97325.22
2023-02-01T23:03:04.845Z,97316.31
2023-02-01T23:05:34.407Z,97331.03
2023-02-01T23:08:02.737Z,97315.44
2023-02-01T23:10:30.878Z,97320.72
2023-02-01T23:12:59.162Z,97322.03
2023-02-01T23:15:27.302Z,97322.31
2023-02-01T23:17:55.386Z,97330.63
2023-02-01T23:20:23.632Z,97317.97
2023-02-01T23:22:53.050Z,97302.16
2023-02-01T23:25:21.294Z,97316.03
2023-02-01T23:27:49.386Z,97322.59
2023-02-01T23:30:17.720Z,97308.97
2023-02-01T23:32:45.788Z,97302.31
2023-02-01T23:35:13.806Z,97318.91
2023-02-01T23:37:41.953Z,97319.41
2023-02-01T23:40:12.908Z,97321.91
2023-02-01T23:42:40.988Z,97314.66
2023-02-01T23:45:09.806Z,97326.66
2023-02-01T23:47:37.873Z,97321.72
2023-02-01T23:50:06.586Z,97317.44
2023-02-01T23:52:34.714Z,97306.38
2023-02-01T23:55:02.728Z,97302.22
2023-02-01T23:57:32.222Z,97313.53
